sensor_id;sensor_type;location;lat;lon;timestamp;temperature;humidity
35894;DHT22;21994;48.204;16.516;2023-07-31T00:00:29;17.80;99.90
35894;DHT22;21994;48.204;16.516;2023-07-31T00:02:55;17.80;99.90
35894;DHT22;21994;48.204;16.516;2023-07-31T00:05:21;17.80;99.90
35894;DHT22;21994;48.204;16.516;2023-07-31T00:07:46;17.80;99.90
35894;DHT22;21994;48.204;16.516;2023-07-31T00:10:12;17.80;99.90
35894;DHT22;21994;48.204;16.516;2023-07-31T00:12:39;17.80;99.90
35894;DHT22;21994;48.204;16.516;2023-07-31T00:15:06;17.90;99.90
35894;DHT22;21994;48.204;16.516;2023-07-31T00:17:32;17.90;99.90
35894;DHT22;21994;48.204;16.516;2023-07-31T00:19:58;18.00;99.90
35894;DHT22;21994;48.204;16.516;2023-07-31T00:22:24;17.90;99.90
35894;DHT22;21994;48.204;16.516;2023-07-31T00:24:50;17.90;99.90
35894;DHT22;21994;48.204;16.516;2023-07-31T00:27:15;17.90;99.90
35894;DHT22;21994;48.204;16.516;2023-07-31T00:29:41;18.00;99.90
35894;DHT22;21994;48.204;16.516;2023-07-31T00:32:07;18.00;99.90
35894;DHT22;21994;48.204;16.516;2023-07-31T00:34:33;17.90;99.90
35894;DHT22;21994;48.204;16.516;2023-07-31T00:36:59;17.90;99.90
35894;DHT22;21994;48.204;16.516;2023-07-31T00:39:24;17.90;99.90
35894;DHT22;21994;48.204;16.516;2023-07-31T00:41:50;17.80;99.90
35894;DHT22;21994;48.204;16.516;2023-07-31T00:44:16;17.90;99.90
35894;DHT22;21994;48.204;16.516;2023-07-31T00:46:42;17.90;99.90
35894;DHT22;21994;48.204;16.516;2023-07-31T00:49:07;17.80;99.90
35894;DHT22;21994;48.204;16.516;2023-07-31T00:51:34;17.80;99.90
35894;DHT22;21994;48.204;16.516;2023-07-31T00:54:00;17.80;99.90
35894;DHT22;21994;48.204;16.516;2023-07-31T00:56:25;17.70;99.90
35894;DHT22;21994;48.204;16.516;2023-07-31T00:58:51;17.80;99.90
35894;DHT22;21994;48.204;16.516;2023-07-31T01:01:17;17.70;99.90
35894;DHT22;21994;48.204;16.516;2023-07-31T01:03:43;17.80;99.90
35894;DHT22;21994;48.204;16.516;2023-07-31T01:06:14;17.70;99.90
35894;DHT22;21994;48.204;16.516;2023-07-31T01:09:04;17.60;99.90
35894;DHT22;21994;48.204;16.516;2023-07-31T01:11:34;17.70;99.90
35894;DHT22;21994;48.204;16.516;2023-07-31T01:14:04;17.70;99.90
35894;DHT22;21994;48.204;16.516;2023-07-31T01:16:30;17.50;99.90
35894;DHT22;21994;48.204;16.516;2023-07-31T01:18:55;17.50;99.90
35894;DHT22;21994;48.204;16.516;2023-07-31T01:21:24;17.30;99.90
35894;DHT22;21994;48.204;16.516;2023-07-31T01:26:36;17.20;99.90
35894;DHT22;21994;48.204;16.516;2023-07-31T01:31:42;17.20;99.90
35894;DHT22;21994;48.204;16.516;2023-07-31T01:34:11;17.10;99.90
35894;DHT22;21994;48.204;16.516;2023-07-31T01:36:38;17.00;99.90
35894;DHT22;21994;48.204;16.516;2023-07-31T01:39:04;16.90;99.90
35894;DHT22;21994;48.204;16.516;2023-07-31T01:41:30;16.90;99.90
35894;DHT22;21994;48.204;16.516;2023-07-31T01:43:55;16.80;99.90
35894;DHT22;21994;48.204;16.516;2023-07-31T01:46:21;16.80;99.90
35894;DHT22;21994;48.204;16.516;2023-07-31T01:48:47;16.80;99.90
35894;DHT22;21994;48.204;16.516;2023-07-31T01:51:13;16.70;99.90
35894;DHT22;21994;48.204;16.516;2023-07-31T01:53:39;16.70;99.90
35894;DHT22;21994;48.204;16.516;2023-07-31T01:56:04;16.80;99.90
35894;DHT22;21994;48.204;16.516;2023-07-31T01:58:30;16.70;99.90
35894;DHT22;21994;48.204;16.516;2023-07-31T02:00:56;16.80;99.90
35894;DHT22;21994;48.204;16.516;2023-07-31T02:03:22;16.70;99.90
35894;DHT22;21994;48.204;16.516;2023-07-31T02:05:48;16.70;99.90
35894;DHT22;21994;48.204;16.516;2023-07-31T02:08:14;16.60;99.90
35894;DHT22;21994;48.204;16.516;2023-07-31T02:10:41;16.50;99.90
35894;DHT22;21994;48.204;16.516;2023-07-31T02:13:07;16.50;99.90
35894;DHT22;21994;48.204;16.516;2023-07-31T02:15:33;16.50;99.90
35894;DHT22;21994;48.204;16.516;2023-07-31T02:17:59;16.40;99.90
35894;DHT22;21994;48.204;16.516;2023-07-31T02:20:25;16.30;99.90
35894;DHT22;21994;48.204;16.516;2023-07-31T02:22:51;16.30;99.90
35894;DHT22;21994;48.204;16.516;2023-07-31T02:25:16;16.20;99.90
35894;DHT22;21994;48.204;16.516;2023-07-31T02:27:42;16.20;99.90
35894;DHT22;21994;48.204;16.516;2023-07-31T02:30:08;16.20;99.90
35894;DHT22;21994;48.204;16.516;2023-07-31T02:32:34;16.20;99.90
35894;DHT22;21994;48.204;16.516;2023-07-31T02:35:00;16.30;99.90
35894;DHT22;21994;48.204;16.516;2023-07-31T02:37:26;16.30;99.90
35894;DHT22;21994;48.204;16.516;2023-07-31T02:39:54;16.30;99.90
35894;DHT22;21994;48.204;16.516;2023-07-31T02:42:19;16.40;99.90
35894;DHT22;21994;48.204;16.516;2023-07-31T02:44:45;16.50;99.90
35894;DHT22;21994;48.204;16.516;2023-07-31T02:47:11;16.50;99.90
35894;DHT22;21994;48.204;16.516;2023-07-31T02:49:37;16.50;99.90
35894;DHT22;21994;48.204;16.516;2023-07-31T02:52:03;16.40;99.90
35894;DHT22;21994;48.204;16.516;2023-07-31T02:54:29;16.40;99.90
35894;DHT22;21994;48.204;16.516;2023-07-31T02:56:55;16.40;99.90
35894;DHT22;21994;48.204;16.516;2023-07-31T02:59:20;16.40;99.90
35894;DHT22;21994;48.204;16.516;2023-07-31T03:01:46;16.40;99.90
35894;DHT22;21994;48.204;16.516;2023-07-31T03:04:12;16.40;99.90
35894;DHT22;21994;48.204;16.516;2023-07-31T03:06:38;16.40;99.90
35894;DHT22;21994;48.204;16.516;2023-07-31T03:09:03;16.30;99.90
35894;DHT22;21994;48.204;16.516;2023-07-31T03:11:29;16.30;99.90
35894;DHT22;21994;48.204;16.516;2023-07-31T03:13:55;16.20;99.90
35894;DHT22;21994;48.204;16.516;2023-07-31T03:16:21;16.20;99.90
35894;DHT22;21994;48.204;16.516;2023-07-31T03:18:47;16.20;99.90
35894;DHT22;21994;48.204;16.516;2023-07-31T03:21:13;16.10;99.90
35894;DHT22;21994;48.204;16.516;2023-07-31T03:23:39;16.00;99.90
35894;DHT22;21994;48.204;16.516;2023-07-31T03:26:06;16.00;99.90
35894;DHT22;21994;48.204;16.516;2023-07-31T03:28:33;16.00;99.90
35894;DHT22;21994;48.204;16.516;2023-07-31T03:30:58;16.00;99.90
35894;DHT22;21994;48.204;16.516;2023-07-31T03:33:25;16.00;99.90
35894;DHT22;21994;48.204;16.516;2023-07-31T03:35:51;16.10;99.90
35894;DHT22;21994;48.204;16.516;2023-07-31T03:38:17;16.30;99.90
35894;DHT22;21994;48.204;16.516;2023-07-31T03:40:43;16.30;99.90
35894;DHT22;21994;48.204;16.516;2023-07-31T03:43:09;16.30;99.90
35894;DHT22;21994;48.204;16.516;2023-07-31T03:45:35;16.30;99.90
35894;DHT22;21994;48.204;16.516;2023-07-31T03:48:00;16.30;99.90
35894;DHT22;21994;48.204;16.516;2023-07-31T03:50:26;16.30;99.90
35894;DHT22;21994;48.204;16.516;2023-07-31T03:52:52;16.30;99.90
35894;DHT22;21994;48.204;16.516;2023-07-31T03:55:18;16.20;99.90
35894;DHT22;21994;48.204;16.516;2023-07-31T03:57:44;16.20;99.90
35894;DHT22;21994;48.204;16.516;2023-07-31T04:00:10;16.20;99.90
35894;DHT22;21994;48.204;16.516;2023-07-31T04:02:36;16.10;99.90
35894;DHT22;21994;48.204;16.516;2023-07-31T04:05:01;16.10;99.90
35894;DHT22;21994;48.204;16.516;2023-07-31T04:07:27;16.00;99.90
35894;DHT22;21994;48.204;16.516;2023-07-31T04:09:53;16.00;99.90
35894;DHT22;21994;48.204;16.516;2023-07-31T04:12:19;16.10;99.90
35894;DHT22;21994;48.204;16.516;2023-07-31T04:14:45;16.10;99.90
35894;DHT22;21994;48.204;16.516;2023-07-31T04:17:10;16.20;99.90
35894;DHT22;21994;48.204;16.516;2023-07-31T04:19:36;16.30;99.90
35894;DHT22;21994;48.204;16.516;2023-07-31T04:22:02;16.50;99.90
35894;DHT22;21994;48.204;16.516;2023-07-31T04:24:28;16.70;99.90
35894;DHT22;21994;48.204;16.516;2023-07-31T04:26:54;16.80;99.90
35894;DHT22;21994;48.204;16.516;2023-07-31T04:29:21;17.00;99.90
35894;DHT22;21994;48.204;16.516;2023-07-31T04:31:47;17.10;99.90
35894;DHT22;21994;48.204;16.516;2023-07-31T04:34:13;17.10;99.90
35894;DHT22;21994;48.204;16.516;2023-07-31T04:36:39;17.30;99.90
35894;DHT22;21994;48.204;16.516;2023-07-31T04:39:05;17.40;99.90
35894;DHT22;21994;48.204;16.516;2023-07-31T04:41:31;17.50;99.90
35894;DHT22;21994;48.204;16.516;2023-07-31T04:43:57;17.60;99.90
35894;DHT22;21994;48.204;16.516;2023-07-31T04:46:22;17.80;99.90
35894;DHT22;21994;48.204;16.516;2023-07-31T04:48:48;17.90;99.90
35894;DHT22;21994;48.204;16.516;2023-07-31T04:51:14;17.90;99.90
35894;DHT22;21994;48.204;16.516;2023-07-31T04:53:40;18.00;99.90
35894;DHT22;21994;48.204;16.516;2023-07-31T04:56:05;18.10;99.90
35894;DHT22;21994;48.204;16.516;2023-07-31T04:58:31;18.20;99.90
35894;DHT22;21994;48.204;16.516;2023-07-31T05:00:57;18.20;99.90
35894;DHT22;21994;48.204;16.516;2023-07-31T05:03:23;18.30;99.90
35894;DHT22;21994;48.204;16.516;2023-07-31T05:05:49;18.40;99.90
35894;DHT22;21994;48.204;16.516;2023-07-31T05:08:15;18.40;99.90
35894;DHT22;21994;48.204;16.516;2023-07-31T05:10:43;18.50;99.90
35894;DHT22;21994;48.204;16.516;2023-07-31T05:13:09;18.50;99.90
35894;DHT22;21994;48.204;16.516;2023-07-31T05:15:34;18.50;99.90
35894;DHT22;21994;48.204;16.516;2023-07-31T05:18:00;18.50;99.90
35894;DHT22;21994;48.204;16.516;2023-07-31T05:20:26;18.60;99.90
35894;DHT22;21994;48.204;16.516;2023-07-31T05:22:53;18.70;99.90
35894;DHT22;21994;48.204;16.516;2023-07-31T05:25:19;18.70;99.90
35894;DHT22;21994;48.204;16.516;2023-07-31T05:27:47;18.80;99.90
35894;DHT22;21994;48.204;16.516;2023-07-31T05:30:13;19.00;99.90
35894;DHT22;21994;48.204;16.516;2023-07-31T05:32:39;19.10;99.90
35894;DHT22;21994;48.204;16.516;2023-07-31T05:35:05;19.20;99.90
35894;DHT22;21994;48.204;16.516;2023-07-31T05:37:31;19.20;99.90
35894;DHT22;21994;48.204;16.516;2023-07-31T05:39:57;19.30;99.90
35894;DHT22;21994;48.204;16.516;2023-07-31T05:42:22;19.30;99.90
35894;DHT22;21994;48.204;16.516;2023-07-31T05:44:48;19.30;99.90
35894;DHT22;21994;48.204;16.516;2023-07-31T05:47:14;19.40;99.90
35894;DHT22;21994;48.204;16.516;2023-07-31T05:49:40;19.20;99.90
35894;DHT22;21994;48.204;16.516;2023-07-31T05:52:06;19.20;99.90
35894;DHT22;21994;48.204;16.516;2023-07-31T05:54:32;19.30;99.90
35894;DHT22;21994;48.204;16.516;2023-07-31T05:56:58;19.30;99.90
35894;DHT22;21994;48.204;16.516;2023-07-31T05:59:24;19.30;99.90
35894;DHT22;21994;48.204;16.516;2023-07-31T06:01:50;19.30;99.90
35894;DHT22;21994;48.204;16.516;2023-07-31T06:04:15;19.50;99.90
35894;DHT22;21994;48.204;16.516;2023-07-31T06:06:41;19.50;99.90
35894;DHT22;21994;48.204;16.516;2023-07-31T06:09:07;19.60;99.90
35894;DHT22;21994;48.204;16.516;2023-07-31T06:11:33;19.80;99.90
35894;DHT22;21994;48.204;16.516;2023-07-31T06:13:58;20.00;99.90
35894;DHT22;21994;48.204;16.516;2023-07-31T06:16:24;20.00;99.90
35894;DHT22;21994;48.204;16.516;2023-07-31T06:18:50;20.20;99.90
35894;DHT22;21994;48.204;16.516;2023-07-31T06:21:16;20.30;99.90
35894;DHT22;21994;48.204;16.516;2023-07-31T06:23:42;20.40;99.90
35894;DHT22;21994;48.204;16.516;2023-07-31T06:26:08;20.50;99.90
35894;DHT22;21994;48.204;16.516;2023-07-31T06:28:34;20.40;99.90
35894;DHT22;21994;48.204;16.516;2023-07-31T06:31:00;20.60;99.90
35894;DHT22;21994;48.204;16.516;2023-07-31T06:33:27;20.70;99.90
35894;DHT22;21994;48.204;16.516;2023-07-31T06:35:53;20.80;99.90
35894;DHT22;21994;48.204;16.516;2023-07-31T06:38:23;20.90;99.90
35894;DHT22;21994;48.204;16.516;2023-07-31T06:40:50;20.80;99.90
35894;DHT22;21994;48.204;16.516;2023-07-31T06:43:16;20.90;99.90
35894;DHT22;21994;48.204;16.516;2023-07-31T06:45:41;20.80;99.90
35894;DHT22;21994;48.204;16.516;2023-07-31T06:48:07;20.80;99.90
35894;DHT22;21994;48.204;16.516;2023-07-31T06:50:33;20.80;99.90
35894;DHT22;21994;48.204;16.516;2023-07-31T06:52:59;20.90;99.90
35894;DHT22;21994;48.204;16.516;2023-07-31T06:55:25;20.80;99.70
35894;DHT22;21994;48.204;16.516;2023-07-31T06:57:52;20.90;99.30
35894;DHT22;21994;48.204;16.516;2023-07-31T07:00:19;20.80;99.90
35894;DHT22;21994;48.204;16.516;2023-07-31T07:02:45;20.70;99.90
35894;DHT22;21994;48.204;16.516;2023-07-31T07:05:15;20.90;99.40
35894;DHT22;21994;48.204;16.516;2023-07-31T07:07:41;21.00;99.00
35894;DHT22;21994;48.204;16.516;2023-07-31T07:10:08;21.20;98.50
35894;DHT22;21994;48.204;16.516;2023-07-31T07:12:34;21.20;98.50
35894;DHT22;21994;48.204;16.516;2023-07-31T07:15:01;21.00;98.30
35894;DHT22;21994;48.204;16.516;2023-07-31T07:17:27;21.10;98.50
35894;DHT22;21994;48.204;16.516;2023-07-31T07:19:54;21.10;98.20
35894;DHT22;21994;48.204;16.516;2023-07-31T07:22:21;21.10;97.60
35894;DHT22;21994;48.204;16.516;2023-07-31T07:24:47;21.10;98.10
35894;DHT22;21994;48.204;16.516;2023-07-31T07:27:12;21.30;97.20
35894;DHT22;21994;48.204;16.516;2023-07-31T07:29:38;21.30;97.40
35894;DHT22;21994;48.204;16.516;2023-07-31T07:32:14;21.50;97.80
35894;DHT22;21994;48.204;16.516;2023-07-31T07:34:39;21.40;97.00
35894;DHT22;21994;48.204;16.516;2023-07-31T07:37:05;21.50;96.50
35894;DHT22;21994;48.204;16.516;2023-07-31T07:39:31;21.50;96.20
35894;DHT22;21994;48.204;16.516;2023-07-31T07:41:57;21.70;94.70
35894;DHT22;21994;48.204;16.516;2023-07-31T07:44:23;21.90;93.50
35894;DHT22;21994;48.204;16.516;2023-07-31T07:46:49;22.00;94.90
35894;DHT22;21994;48.204;16.516;2023-07-31T07:49:14;22.00;94.30
35894;DHT22;21994;48.204;16.516;2023-07-31T07:51:40;22.20;93.70
35894;DHT22;21994;48.204;16.516;2023-07-31T07:54:06;22.20;93.80
35894;DHT22;21994;48.204;16.516;2023-07-31T07:56:32;22.20;94.50
35894;DHT22;21994;48.204;16.516;2023-07-31T07:58:58;22.20;93.20
35894;DHT22;21994;48.204;16.516;2023-07-31T08:01:24;22.40;93.40
35894;DHT22;21994;48.204;16.516;2023-07-31T08:03:50;22.30;94.70
35894;DHT22;21994;48.204;16.516;2023-07-31T08:06:16;22.50;93.00
35894;DHT22;21994;48.204;16.516;2023-07-31T08:08:42;22.50;93.90
35894;DHT22;21994;48.204;16.516;2023-07-31T08:11:08;23.00;92.20
35894;DHT22;21994;48.204;16.516;2023-07-31T08:13:34;23.00;94.20
35894;DHT22;21994;48.204;16.516;2023-07-31T08:16:02;23.20;92.70
35894;DHT22;21994;48.204;16.516;2023-07-31T08:18:30;23.20;91.20
35894;DHT22;21994;48.204;16.516;2023-07-31T08:20:56;23.20;92.20
35894;DHT22;21994;48.204;16.516;2023-07-31T08:23:22;23.00;92.90
35894;DHT22;21994;48.204;16.516;2023-07-31T08:25:48;22.90;94.00
35894;DHT22;21994;48.204;16.516;2023-07-31T08:28:16;23.00;93.50
35894;DHT22;21994;48.204;16.516;2023-07-31T08:30:42;23.10;92.40
35894;DHT22;21994;48.204;16.516;2023-07-31T08:33:08;23.20;91.70
35894;DHT22;21994;48.204;16.516;2023-07-31T08:35:34;23.10;93.10
35894;DHT22;21994;48.204;16.516;2023-07-31T08:37:59;23.20;92.90
35894;DHT22;21994;48.204;16.516;2023-07-31T08:40:25;23.90;91.90
35894;DHT22;21994;48.204;16.516;2023-07-31T08:42:53;24.40;91.30
35894;DHT22;21994;48.204;16.516;2023-07-31T08:45:19;24.80;90.00
35894;DHT22;21994;48.204;16.516;2023-07-31T08:47:47;25.00;88.00
35894;DHT22;21994;48.204;16.516;2023-07-31T08:50:15;25.30;88.30
35894;DHT22;21994;48.204;16.516;2023-07-31T08:52:42;25.60;89.30
35894;DHT22;21994;48.204;16.516;2023-07-31T08:55:09;25.90;88.90
35894;DHT22;21994;48.204;16.516;2023-07-31T08:57:36;26.30;88.20
35894;DHT22;21994;48.204;16.516;2023-07-31T09:00:04;26.20;88.30
35894;DHT22;21994;48.204;16.516;2023-07-31T09:02:34;26.20;87.90
35894;DHT22;21994;48.204;16.516;2023-07-31T09:05:07;26.70;90.40
35894;DHT22;21994;48.204;16.516;2023-07-31T09:07:33;26.90;86.80
35894;DHT22;21994;48.204;16.516;2023-07-31T09:10:01;27.00;86.70
35894;DHT22;21994;48.204;16.516;2023-07-31T09:12:27;27.10;84.00
35894;DHT22;21994;48.204;16.516;2023-07-31T09:14:53;27.20;85.50
35894;DHT22;21994;48.204;16.516;2023-07-31T09:17:29;27.60;86.20
35894;DHT22;21994;48.204;16.516;2023-07-31T09:20:18;28.00;84.50
35894;DHT22;21994;48.204;16.516;2023-07-31T09:22:45;28.00;80.40
35894;DHT22;21994;48.204;16.516;2023-07-31T09:30:20;28.90;81.30
35894;DHT22;21994;48.204;16.516;2023-07-31T09:32:46;28.90;82.20
35894;DHT22;21994;48.204;16.516;2023-07-31T09:35:18;28.50;78.70
35894;DHT22;21994;48.204;16.516;2023-07-31T09:37:50;28.20;80.90
35894;DHT22;21994;48.204;16.516;2023-07-31T09:40:30;27.20;80.70
35894;DHT22;21994;48.204;16.516;2023-07-31T09:42:58;27.10;80.40
35894;DHT22;21994;48.204;16.516;2023-07-31T09:45:28;26.70;80.90
35894;DHT22;21994;48.204;16.516;2023-07-31T09:47:54;26.20;83.80
35894;DHT22;21994;48.204;16.516;2023-07-31T09:50:22;25.70;81.80
35894;DHT22;21994;48.204;16.516;2023-07-31T09:52:49;25.60;81.50
35894;DHT22;21994;48.204;16.516;2023-07-31T09:55:18;25.90;82.40
35894;DHT22;21994;48.204;16.516;2023-07-31T09:57:48;26.70;79.90
35894;DHT22;21994;48.204;16.516;2023-07-31T10:00:15;27.80;79.70
35894;DHT22;21994;48.204;16.516;2023-07-31T10:02:46;28.60;76.30
35894;DHT22;21994;48.204;16.516;2023-07-31T10:05:13;29.30;75.00
35894;DHT22;21994;48.204;16.516;2023-07-31T10:07:54;29.70;73.60
35894;DHT22;21994;48.204;16.516;2023-07-31T10:10:23;29.60;73.30
35894;DHT22;21994;48.204;16.516;2023-07-31T10:12:51;29.60;71.70
35894;DHT22;21994;48.204;16.516;2023-07-31T10:15:18;29.80;72.80
35894;DHT22;21994;48.204;16.516;2023-07-31T10:17:44;30.40;72.20
35894;DHT22;21994;48.204;16.516;2023-07-31T10:20:12;30.20;73.50
35894;DHT22;21994;48.204;16.516;2023-07-31T10:22:38;30.30;73.40
35894;DHT22;21994;48.204;16.516;2023-07-31T10:25:04;31.00;71.60
35894;DHT22;21994;48.204;16.516;2023-07-31T10:27:30;30.80;74.20
35894;DHT22;21994;48.204;16.516;2023-07-31T10:29:56;30.90;71.60
35894;DHT22;21994;48.204;16.516;2023-07-31T10:32:23;30.90;72.30
35894;DHT22;21994;48.204;16.516;2023-07-31T10:34:49;31.20;70.90
35894;DHT22;21994;48.204;16.516;2023-07-31T10:37:19;31.00;73.80
35894;DHT22;21994;48.204;16.516;2023-07-31T10:39:45;30.90;74.20
35894;DHT22;21994;48.204;16.516;2023-07-31T10:42:36;30.40;73.20
35894;DHT22;21994;48.204;16.516;2023-07-31T10:45:05;30.40;71.10
35894;DHT22;21994;48.204;16.516;2023-07-31T10:47:44;29.90;73.40
35894;DHT22;21994;48.204;16.516;2023-07-31T10:52:47;29.10;73.40
35894;DHT22;21994;48.204;16.516;2023-07-31T10:57:40;28.80;73.40
35894;DHT22;21994;48.204;16.516;2023-07-31T11:00:24;28.70;73.40
35894;DHT22;21994;48.204;16.516;2023-07-31T11:08:24;30.70;73.50
35894;DHT22;21994;48.204;16.516;2023-07-31T11:13:30;31.50;71.60
35894;DHT22;21994;48.204;16.516;2023-07-31T11:15:59;31.40;71.80
35894;DHT22;21994;48.204;16.516;2023-07-31T11:18:26;31.70;68.20
35894;DHT22;21994;48.204;16.516;2023-07-31T11:20:53;31.70;69.10
35894;DHT22;21994;48.204;16.516;2023-07-31T11:23:19;31.40;71.40
35894;DHT22;21994;48.204;16.516;2023-07-31T11:25:46;31.00;72.60
35894;DHT22;21994;48.204;16.516;2023-07-31T11:28:14;30.90;69.90
35894;DHT22;21994;48.204;16.516;2023-07-31T11:30:42;30.80;70.20
35894;DHT22;21994;48.204;16.516;2023-07-31T11:33:10;30.60;70.60
35894;DHT22;21994;48.204;16.516;2023-07-31T11:35:43;30.40;69.70
35894;DHT22;21994;48.204;16.516;2023-07-31T11:38:28;29.90;72.40
35894;DHT22;21994;48.204;16.516;2023-07-31T11:40:58;29.40;71.80
35894;DHT22;21994;48.204;16.516;2023-07-31T11:43:25;28.80;72.00
35894;DHT22;21994;48.204;16.516;2023-07-31T11:45:54;28.70;77.40
35894;DHT22;21994;48.204;16.516;2023-07-31T11:48:26;28.80;71.20
35894;DHT22;21994;48.204;16.516;2023-07-31T11:50:56;28.70;73.70
35894;DHT22;21994;48.204;16.516;2023-07-31T11:53:43;28.90;73.70
35894;DHT22;21994;48.204;16.516;2023-07-31T11:56:17;28.70;73.80
35894;DHT22;21994;48.204;16.516;2023-07-31T11:58:46;28.60;72.90
35894;DHT22;21994;48.204;16.516;2023-07-31T12:01:15;28.70;74.40
35894;DHT22;21994;48.204;16.516;2023-07-31T12:03:41;28.50;72.60
35894;DHT22;21994;48.204;16.516;2023-07-31T12:06:08;28.30;74.40
35894;DHT22;21994;48.204;16.516;2023-07-31T12:08:34;28.30;73.80
35894;DHT22;21994;48.204;16.516;2023-07-31T12:11:04;28.20;74.70
35894;DHT22;21994;48.204;16.516;2023-07-31T12:13:32;28.10;75.00
35894;DHT22;21994;48.204;16.516;2023-07-31T12:16:00;28.20;72.80
35894;DHT22;21994;48.204;16.516;2023-07-31T12:18:30;28.00;72.70
35894;DHT22;21994;48.204;16.516;2023-07-31T12:20:59;27.70;74.70
35894;DHT22;21994;48.204;16.516;2023-07-31T12:23:31;28.00;74.00
35894;DHT22;21994;48.204;16.516;2023-07-31T12:26:14;28.30;73.60
35894;DHT22;21994;48.204;16.516;2023-07-31T12:28:49;28.50;77.40
35894;DHT22;21994;48.204;16.516;2023-07-31T12:31:21;28.40;71.30
35894;DHT22;21994;48.204;16.516;2023-07-31T12:33:49;28.40;70.20
35894;DHT22;21994;48.204;16.516;2023-07-31T12:36:18;28.00;74.00
35894;DHT22;21994;48.204;16.516;2023-07-31T12:38:46;27.80;75.40
35894;DHT22;21994;48.204;16.516;2023-07-31T12:41:12;27.90;71.30
35894;DHT22;21994;48.204;16.516;2023-07-31T12:43:40;28.00;73.60
35894;DHT22;21994;48.204;16.516;2023-07-31T12:46:08;27.90;75.10
35894;DHT22;21994;48.204;16.516;2023-07-31T12:48:34;27.90;72.80
35894;DHT22;21994;48.204;16.516;2023-07-31T12:51:01;27.90;71.50
35894;DHT22;21994;48.204;16.516;2023-07-31T12:53:28;27.90;73.90
35894;DHT22;21994;48.204;16.516;2023-07-31T12:55:55;28.10;74.50
35894;DHT22;21994;48.204;16.516;2023-07-31T12:58:21;28.20;71.60
35894;DHT22;21994;48.204;16.516;2023-07-31T13:00:47;28.10;72.40
35894;DHT22;21994;48.204;16.516;2023-07-31T13:03:13;28.20;73.10
35894;DHT22;21994;48.204;16.516;2023-07-31T13:05:39;28.30;73.90
35894;DHT22;21994;48.204;16.516;2023-07-31T13:08:05;28.50;75.40
35894;DHT22;21994;48.204;16.516;2023-07-31T13:10:31;28.40;73.60
35894;DHT22;21994;48.204;16.516;2023-07-31T13:12:57;28.30;69.60
35894;DHT22;21994;48.204;16.516;2023-07-31T13:15:23;28.30;76.30
35894;DHT22;21994;48.204;16.516;2023-07-31T13:17:49;28.20;70.90
35894;DHT22;21994;48.204;16.516;2023-07-31T13:20:15;28.30;69.90
35894;DHT22;21994;48.204;16.516;2023-07-31T13:22:41;28.50;70.40
35894;DHT22;21994;48.204;16.516;2023-07-31T13:25:07;28.60;69.80
35894;DHT22;21994;48.204;16.516;2023-07-31T13:27:34;28.90;70.00
35894;DHT22;21994;48.204;16.516;2023-07-31T13:30:01;29.00;70.50
35894;DHT22;21994;48.204;16.516;2023-07-31T13:32:27;29.00;74.60
35894;DHT22;21994;48.204;16.516;2023-07-31T13:34:53;28.90;68.80
35894;DHT22;21994;48.204;16.516;2023-07-31T13:37:19;28.50;71.00
35894;DHT22;21994;48.204;16.516;2023-07-31T13:39:45;28.50;71.00
35894;DHT22;21994;48.204;16.516;2023-07-31T13:42:11;28.60;72.10
35894;DHT22;21994;48.204;16.516;2023-07-31T13:44:39;28.70;76.30
35894;DHT22;21994;48.204;16.516;2023-07-31T13:47:05;28.90;72.80
35894;DHT22;21994;48.204;16.516;2023-07-31T13:49:32;28.90;72.70
35894;DHT22;21994;48.204;16.516;2023-07-31T13:51:58;28.60;73.30
35894;DHT22;21994;48.204;16.516;2023-07-31T13:54:25;28.80;73.90
35894;DHT22;21994;48.204;16.516;2023-07-31T13:56:52;28.70;71.50
35894;DHT22;21994;48.204;16.516;2023-07-31T13:59:18;28.70;70.80
35894;DHT22;21994;48.204;16.516;2023-07-31T14:01:45;28.80;72.20
35894;DHT22;21994;48.204;16.516;2023-07-31T14:04:11;28.40;71.80
35894;DHT22;21994;48.204;16.516;2023-07-31T14:06:37;28.40;71.70
35894;DHT22;21994;48.204;16.516;2023-07-31T14:09:03;28.50;71.70
35894;DHT22;21994;48.204;16.516;2023-07-31T14:11:33;28.40;71.60
35894;DHT22;21994;48.204;16.516;2023-07-31T14:13:59;28.60;70.90
35894;DHT22;21994;48.204;16.516;2023-07-31T14:16:25;28.60;72.90
35894;DHT22;21994;48.204;16.516;2023-07-31T14:18:51;28.40;72.00
35894;DHT22;21994;48.204;16.516;2023-07-31T14:21:19;28.50;70.30
35894;DHT22;21994;48.204;16.516;2023-07-31T14:23:45;28.30;69.50
35894;DHT22;21994;48.204;16.516;2023-07-31T14:26:11;28.30;71.30
35894;DHT22;21994;48.204;16.516;2023-07-31T14:28:37;28.40;69.10
35894;DHT22;21994;48.204;16.516;2023-07-31T14:31:03;28.60;69.50
35894;DHT22;21994;48.204;16.516;2023-07-31T14:33:29;28.60;69.10
35894;DHT22;21994;48.204;16.516;2023-07-31T14:35:55;28.40;69.10
35894;DHT22;21994;48.204;16.516;2023-07-31T14:38:21;28.10;69.80
35894;DHT22;21994;48.204;16.516;2023-07-31T14:40:47;27.90;68.40
35894;DHT22;21994;48.204;16.516;2023-07-31T14:43:13;27.80;67.90
35894;DHT22;21994;48.204;16.516;2023-07-31T14:45:39;27.80;69.60
35894;DHT22;21994;48.204;16.516;2023-07-31T14:48:05;27.80;70.10
35894;DHT22;21994;48.204;16.516;2023-07-31T14:50:31;28.20;69.10
35894;DHT22;21994;48.204;16.516;2023-07-31T14:52:57;28.40;69.50
35894;DHT22;21994;48.204;16.516;2023-07-31T14:55:23;28.70;68.20
35894;DHT22;21994;48.204;16.516;2023-07-31T14:57:48;28.70;66.00
35894;DHT22;21994;48.204;16.516;2023-07-31T15:00:15;28.80;68.20
35894;DHT22;21994;48.204;16.516;2023-07-31T15:02:41;29.00;68.20
35894;DHT22;21994;48.204;16.516;2023-07-31T15:05:08;29.10;68.30
35894;DHT22;21994;48.204;16.516;2023-07-31T15:07:34;29.10;66.50
35894;DHT22;21994;48.204;16.516;2023-07-31T15:10:01;28.80;65.00
35894;DHT22;21994;48.204;16.516;2023-07-31T15:12:28;28.50;67.00
35894;DHT22;21994;48.204;16.516;2023-07-31T15:14:54;28.00;68.60
35894;DHT22;21994;48.204;16.516;2023-07-31T15:17:20;27.80;68.90
35894;DHT22;21994;48.204;16.516;2023-07-31T15:19:46;27.70;68.50
35894;DHT22;21994;48.204;16.516;2023-07-31T15:22:12;27.60;68.70
35894;DHT22;21994;48.204;16.516;2023-07-31T15:24:38;27.60;66.80
35894;DHT22;21994;48.204;16.516;2023-07-31T15:27:03;27.50;66.60
35894;DHT22;21994;48.204;16.516;2023-07-31T15:29:30;27.60;67.30
35894;DHT22;21994;48.204;16.516;2023-07-31T15:31:56;27.80;67.30
35894;DHT22;21994;48.204;16.516;2023-07-31T15:34:22;27.90;65.70
35894;DHT22;21994;48.204;16.516;2023-07-31T15:36:48;28.00;68.50